Time;durP1;ratioP1;P1;durP2;ratioP2;P2;SDS_P1;SDS_P2;PMS_P1;PMS_P2;Temp;Humidity;BMP_temperature;BMP_pressure;BME280_temperature;BME280_humidity;BME280_pressure;Samples;Min_cycle;Max_cycle;Signal;HPM_P1;HPM_P2
2022/11/21 00:04:34;;;;;;;36.30;20.40;;;0.20;38.00;;;;;;10315493;28;20235;-78
2022/11/21 00:09:55;;;;;;;44.70;24.73;;;0.20;24.00;;;;;;10300513;28;20196;-78
2022/11/21 00:15:16;;;;;;;35.80;21.33;;;0.20;40.40;;;;;;10300560;28;20221;-79
2022/11/21 00:20:39;;;;;;;36.50;20.80;;;0.30;42.10;;;;;;10335125;28;20220;-83
2022/11/21 00:26:07;;;;;;;33.97;19.17;;;0.20;31.80;;;;;;10324016;28;20207;-78
2022/11/21 00:31:28;;;;;;;37.63;22.17;;;0.30;8.80;;;;;;10278621;28;20206;-79
2022/11/21 00:36:49;;;;;;;37.87;22.23;;;0.10;21.80;;;;;;10278321;28;20230;-82
2022/11/21 00:42:10;;;;;;;49.30;30.93;;;0.20;3.30;;;;;;10291412;28;20231;-83
2022/11/21 00:47:31;;;;;;;42.53;24.73;;;0.20;1.00;;;;;;10291524;28;20232;-85
2022/11/21 00:52:56;;;;;;;38.50;23.00;;;0.20;11.60;;;;;;10291234;28;20210;-79
2022/11/21 00:58:17;;;;;;;31.23;19.20;;;0.20;12.10;;;;;;10302061;28;20259;-85
2022/11/21 01:03:41;;;;;;;39.93;23.27;;;0.20;25.20;;;;;;10313200;28;20320;-83
2022/11/21 01:09:03;;;;;;;34.77;21.43;;;0.20;7.90;;;;;;10277617;28;20500;-79
2022/11/21 01:14:24;;;;;;;35.37;21.33;;;0.20;32.90;;;;;;10307404;28;20216;-78
2022/11/21 01:19:45;;;;;;;33.70;19.73;;;0.20;6.50;;;;;;10291610;28;20227;-78
2022/11/21 01:25:07;;;;;;;37.27;19.90;;;0.20;8.20;;;;;;10320715;28;20220;-79
2022/11/21 01:30:27;;;;;;;32.30;18.40;;;0.20;1.10;;;;;;10341503;28;20270;-83
2022/11/21 01:35:49;;;;;;;40.97;22.90;;;0.30;1.00;;;;;;10322443;28;20200;-83
2022/11/21 01:41:12;;;;;;;41.27;20.60;;;0.20;1.20;;;;;;10328811;28;20424;-79
2022/11/21 01:46:33;;;;;;;37.77;21.57;;;0.10;16.00;;;;;;10329106;28;20230;-82
2022/11/21 01:52:00;;;;;;;32.63;18.17;;;0.10;6.10;;;;;;10332012;28;20219;-79
2022/11/21 01:57:25;;;;;;;34.30;19.67;;;0.10;10.40;;;;;;10328599;28;20311;-84
2022/11/21 02:02:51;;;;;;;37.10;20.87;;;0.10;36.70;;;;;;10310732;28;20232;-78
2022/11/21 02:08:19;;;;;;;34.23;19.77;;;0.20;54.30;;;;;;10304899;28;20287;-83
2022/11/21 02:13:40;;;;;;;29.47;17.70;;;0.20;30.00;;;;;;10288255;28;20212;-82
2022/11/21 02:19:02;;;;;;;30.53;17.50;;;0.20;24.50;;;;;;10309975;28;20205;-82
2022/11/21 02:24:52;;;;;;;29.67;17.63;;;0.20;9.10;;;;;;10327926;28;20247;-81
2022/11/21 02:30:15;;;;;;;30.93;18.33;;;0.20;16.00;;;;;;10334911;28;20207;-83
2022/11/21 02:35:36;;;;;;;30.73;18.60;;;0.10;1.00;;;;;;10348747;28;20270;-78
2022/11/21 02:41:25;;;;;;;37.63;19.27;;;0.20;3.90;;;;;;10327367;28;20445;-86
2022/11/21 02:46:51;;;;;;;33.90;17.57;;;0.10;1.00;;;;;;10343391;28;20200;-87
2022/11/21 02:52:12;;;;;;;30.83;17.73;;;0.20;1.00;;;;;;10342480;28;20263;-83
2022/11/21 02:57:33;;;;;;;33.50;18.77;;;0.10;1.00;;;;;;10326347;28;20531;-81
2022/11/21 03:02:54;;;;;;;34.03;19.07;;;0.10;1.00;;;;;;10352534;28;20223;-80
2022/11/21 03:08:16;;;;;;;34.57;18.90;;;0.10;1.00;;;;;;10312548;28;20270;-83
2022/11/21 03:13:37;;;;;;;27.40;16.93;;;0.10;1.00;;;;;;10325955;28;20392;-80
2022/11/21 03:18:58;;;;;;;33.47;18.93;;;0.00;1.00;;;;;;10312000;28;20208;-82
2022/11/21 03:24:20;;;;;;;33.23;18.17;;;-0.10;1.00;;;;;;10341864;28;20514;-82
2022/11/21 03:29:41;;;;;;;28.40;15.77;;;-0.10;1.00;;;;;;10351574;28;20494;-78
2022/11/21 03:35:02;;;;;;;25.70;14.93;;;-0.10;1.00;;;;;;10338020;28;20214;-81
2022/11/21 03:40:23;;;;;;;26.87;15.23;;;0.00;1.00;;;;;;10325344;28;20506;-83
2022/11/21 03:45:46;;;;;;;26.57;16.67;;;0.00;1.00;;;;;;10324917;28;20239;-82
2022/11/21 03:51:07;;;;;;;26.50;16.43;;;-0.10;1.00;;;;;;10338726;28;20226;-78
2022/11/21 03:56:29;;;;;;;24.00;14.90;;;-0.20;1.00;;;;;;10324600;28;20206;-79
2022/11/21 04:01:50;;;;;;;26.57;14.63;;;-0.10;1.00;;;;;;10303093;28;20227;-86
2022/11/21 04:07:12;;;;;;;25.83;15.20;;;-0.10;1.00;;;;;;10293460;28;20270;-86
2022/11/21 04:12:33;;;;;;;23.53;14.77;;;-0.10;1.00;;;;;;10295206;28;20404;-78
2022/11/21 04:17:54;;;;;;;22.43;14.83;;;-0.10;1.00;;;;;;10322776;28;20215;-80
2022/11/21 04:23:16;;;;;;;20.63;14.40;;;-0.10;1.00;;;;;;10339986;28;20278;-83
2022/11/21 04:28:37;;;;;;;23.53;16.97;;;-0.10;1.00;;;;;;10343187;28;20548;-78
2022/11/21 04:33:58;;;;;;;32.30;21.53;;;-0.10;1.00;;;;;;10369595;28;20200;-86
2022/11/21 04:39:20;;;;;;;28.67;18.03;;;-0.10;1.00;;;;;;10333191;28;20205;-81
2022/11/21 04:44:43;;;;;;;26.07;15.13;;;-0.10;1.00;;;;;;10325590;28;20446;-83
2022/11/21 04:50:04;;;;;;;23.47;14.47;;;-0.10;1.00;;;;;;10345339;28;20207;-86
2022/11/21 04:55:29;;;;;;;25.57;14.50;;;-0.20;1.00;;;;;;10331523;28;20498;-79
2022/11/21 05:00:50;;;;;;;23.37;14.67;;;-0.20;1.00;;;;;;10346691;28;20237;-86
2022/11/21 05:06:11;;;;;;;22.60;13.93;;;-0.20;1.00;;;;;;10290639;28;20391;-81
2022/11/21 05:17:12;;;;;;;33.43;19.77;;;-0.30;1.00;;;;;;10313078;28;20212;-86
2022/11/21 05:22:34;;;;;;;49.63;22.03;;;-0.30;1.00;;;;;;10330060;28;20247;-82
2022/11/21 05:27:55;;;;;;;46.97;21.37;;;-0.20;1.00;;;;;;10342018;28;20270;-79
2022/11/21 05:33:17;;;;;;;55.30;26.80;;;-0.30;1.00;;;;;;10344192;28;20421;-79
2022/11/21 05:38:38;;;;;;;42.37;23.20;;;-0.40;1.00;;;;;;10336353;28;20222;-79
2022/11/21 05:43:59;;;;;;;34.20;19.40;;;-0.40;1.00;;;;;;10319437;28;20232;-80
2022/11/21 05:49:20;;;;;;;32.60;17.67;;;-0.40;1.00;;;;;;10330734;28;20200;-79
2022/11/21 05:54:41;;;;;;;29.57;18.07;;;-0.50;1.00;;;;;;10343466;28;20208;-86
2022/11/21 06:00:06;;;;;;;31.13;18.30;;;-0.50;1.00;;;;;;10322539;28;20263;-80
2022/11/21 06:05:29;;;;;;;54.53;29.93;;;-0.50;1.00;;;;;;10305542;28;20235;-79
2022/11/21 06:10:50;;;;;;;46.60;28.13;;;-0.50;1.00;;;;;;10288490;28;20263;-82
2022/11/21 06:16:13;;;;;;;34.77;20.33;;;-0.40;1.00;;;;;;10288818;28;20238;-82
2022/11/21 06:21:36;;;;;;;36.40;19.70;;;-0.40;1.00;;;;;;10287727;28;20242;-82
2022/11/21 06:26:57;;;;;;;34.40;19.37;;;-0.50;1.00;;;;;;10321987;28;20197;-83
2022/11/21 06:32:18;;;;;;;44.90;25.07;;;-0.50;1.00;;;;;;10348561;28;20200;-81
2022/11/21 06:37:40;;;;;;;73.73;39.90;;;-0.50;1.00;;;;;;10314496;28;20211;-82
2022/11/21 06:43:01;;;;;;;88.83;44.53;;;-0.40;1.00;;;;;;10327390;28;20237;-87
2022/11/21 06:48:22;;;;;;;46.40;28.20;;;-0.40;1.00;;;;;;10327474;28;20228;-87
2022/11/21 06:53:44;;;;;;;37.90;21.73;;;-0.40;1.00;;;;;;10326456;28;20204;-86
2022/11/21 06:59:05;;;;;;;39.57;22.53;;;-0.20;64.60;;;;;;10354580;28;20231;-81
2022/11/21 07:04:26;;;;;;;36.33;22.33;;;-0.10;1.00;;;;;;10286059;28;20231;-78
2022/11/21 07:09:47;;;;;;;45.50;28.43;;;-0.10;1.00;;;;;;10299244;28;20205;-82
2022/11/21 07:15:10;;;;;;;51.97;23.63;;;-0.10;1.00;;;;;;10287287;28;20431;-92
2022/11/21 07:20:31;;;;;;;37.23;21.90;;;-0.20;1.00;;;;;;10336179;28;20201;-85
2022/11/21 07:25:52;;;;;;;41.27;23.60;;;-0.20;1.00;;;;;;10342253;28;20266;-78
2022/11/21 07:31:13;;;;;;;40.43;22.90;;;-0.20;1.00;;;;;;10380410;28;20231;-84
2022/11/21 07:36:35;;;;;;;36.40;21.33;;;-0.30;1.00;;;;;;10324740;28;20204;-78
2022/11/21 07:41:56;;;;;;;38.50;23.10;;;-0.40;1.00;;;;;;10341577;28;20226;-80
2022/11/21 07:47:17;;;;;;;37.40;22.57;;;-0.40;1.00;;;;;;10338272;28;20198;-77
2022/11/21 07:52:38;;;;;;;46.90;24.23;;;-0.40;1.00;;;;;;10341308;28;20516;-91
2022/11/21 07:58:03;;;;;;;38.63;21.47;;;-0.30;1.00;;;;;;10361769;28;20615;-83
2022/11/21 08:03:24;;;;;;;50.27;26.73;;;-0.20;1.00;;;;;;10310805;28;20468;-88
2022/11/21 08:08:47;;;;;;;36.83;20.60;;;0.00;1.00;;;;;;10315540;28;20196;-77
2022/11/21 08:14:08;;;;;;;45.63;25.13;;;0.20;1.00;;;;;;10300966;28;20202;-83
2022/11/21 08:19:29;;;;;;;57.27;29.60;;;1.00;1.00;;;;;;10309898;28;20518;-77
2022/11/21 08:24:50;;;;;;;50.30;27.50;;;1.70;6.20;;;;;;10355521;28;20218;-87
2022/11/21 08:36:10;;;;;;;43.50;27.13;;;3.10;1.00;;;;;;10238263;23;20233;-81
2022/11/21 08:47:10;;;;;;;29.17;18.37;;;3.20;1.00;;;;;;10095694;29;20275;-85
2022/11/21 08:52:31;;;;;;;48.07;26.37;;;2.60;99.90;;;;;;10096015;29;20501;-81
2022/11/21 08:57:53;;;;;;;57.93;28.67;;;2.50;80.90;;;;;;10136149;29;20206;-79
2022/11/21 09:03:14;;;;;;;51.33;28.43;;;2.40;1.00;;;;;;10144290;29;20245;-82
2022/11/21 09:08:37;;;;;;;43.67;23.50;;;2.30;1.00;;;;;;10090477;29;20208;-84
2022/11/21 09:19:39;;;;;;;35.57;20.57;;;2.30;99.90;;;;;;10066513;29;20219;-81
2022/11/21 09:25:00;;;;;;;51.97;24.83;;;2.20;1.00;;;;;;10076097;29;20272;-83
2022/11/21 09:30:22;;;;;;;40.20;23.13;;;2.20;1.00;;;;;;10092561;29;20203;-81
2022/11/21 09:35:43;;;;;;;32.43;20.23;;;1.90;99.90;;;;;;10097634;29;20250;-83
2022/11/21 09:47:16;;;;;;;31.30;18.23;;;1.60;99.90;;;;;;10089455;29;20206;-80
2022/11/21 09:52:40;;;;;;;28.13;16.63;;;1.50;20.40;;;;;;10102914;29;20222;-79
2022/11/21 09:58:05;;;;;;;30.90;18.83;;;1.30;99.90;;;;;;10052750;29;20214;-82
2022/11/21 10:04:04;;;;;;;41.33;23.07;;;1.50;1.00;;;;;;10081356;29;20230;-83
2022/11/21 10:10:03;;;;;;;34.23;20.53;;;1.70;1.00;;;;;;10106803;29;20212;-85
2022/11/21 10:15:31;;;;;;;41.00;22.43;;;1.80;1.00;;;;;;10105516;29;20314;-86
2022/11/21 10:20:58;;;;;;;29.67;17.47;;;1.70;1.00;;;;;;10104285;29;20558;-83
2022/11/21 10:26:32;;;;;;;32.30;17.13;;;1.70;99.90;;;;;;10087715;29;20244;-84
2022/11/21 10:32:01;;;;;;;28.50;14.93;;;1.50;1.00;;;;;;10117640;29;20257;-85
2022/11/21 10:37:36;;;;;;;32.30;17.77;;;1.00;99.90;;;;;;10089796;29;20237;-86
2022/11/21 10:49:02;;;;;;;41.03;23.50;;;0.70;1.00;;;;;;10051797;29;20261;-86
2022/11/21 10:54:32;;;;;;;42.30;25.47;;;0.40;99.90;;;;;;10056965;29;20242;-83
2022/11/21 11:00:11;;;;;;;44.93;23.90;;;0.30;30.20;;;;;;10037340;29;20221;-88
2022/11/21 11:05:37;;;;;;;42.93;24.03;;;0.30;1.00;;;;;;9998086;29;20272;-89
2022/11/21 11:11:28;;;;;;;39.43;22.70;;;0.20;99.90;;;;;;9999406;29;20248;-83
2022/11/21 11:16:51;;;;;;;36.50;21.87;;;0.30;99.90;;;;;;10057217;23;20242;-83
2022/11/21 11:22:27;;;;;;;40.83;22.37;;;0.50;99.90;;;;;;10052784;29;20323;-86
2022/11/21 11:27:48;;;;;;;40.20;22.47;;;0.50;99.90;;;;;;10067883;29;20206;-85
2022/11/21 11:33:31;;;;;;;41.10;23.67;;;0.60;74.90;;;;;;10068226;29;20250;-90
2022/11/21 11:38:56;;;;;;;41.07;24.37;;;0.50;99.90;;;;;;10065508;29;20286;-90
2022/11/21 11:50:18;;;;;;;47.57;24.73;;;0.70;99.90;;;;;;10064919;29;20210;-90
2022/11/21 11:56:21;;;;;;;44.67;26.33;;;0.80;99.90;;;;;;10055923;29;20235;-90
2022/11/21 12:01:58;;;;;;;44.37;24.40;;;0.80;42.20;;;;;;9981368;29;20220;-84
2022/11/21 12:07:27;;;;;;;51.73;29.50;;;0.80;99.90;;;;;;9981018;29;20514;-91
2022/11/21 12:13:17;;;;;;;65.60;31.73;;;0.80;51.20;;;;;;9996895;29;20307;-88
2022/11/21 12:18:57;;;;;;;54.00;29.37;;;0.90;1.00;;;;;;9979778;29;20248;-86
2022/11/21 12:24:21;;;;;;;61.10;35.53;;;0.90;54.50;;;;;;9980130;29;20239;-90
2022/11/21 12:29:51;;;;;;;75.13;39.33;;;1.00;1.00;;;;;;9957071;29;20272;-88
2022/11/21 12:35:50;;;;;;;68.67;37.63;;;0.80;1.00;;;;;;10033770;29;20225;-86
2022/11/21 12:47:11;;;;;;;75.70;40.70;;;0.60;99.90;;;;;;10090878;29;20226;-87
2022/11/21 12:58:29;;;;;;;69.23;37.80;;;0.60;99.90;;;;;;10048686;29;20209;-83
2022/11/21 13:03:52;;;;;;;71.07;38.17;;;0.60;1.00;;;;;;10082100;29;20313;-87
2022/11/21 13:09:20;;;;;;;69.77;38.53;;;0.50;1.00;;;;;;10062952;29;20494;-83
2022/11/21 13:14:42;;;;;;;69.47;36.47;;;0.30;1.00;;;;;;10042664;29;20441;-82
2022/11/21 13:20:27;;;;;;;68.93;38.30;;;0.10;1.00;;;;;;10036971;29;20301;-86
2022/11/21 13:25:48;;;;;;;108.63;49.33;;;-0.10;99.90;;;;;;10052596;29;20256;-81
2022/11/21 13:31:30;;;;;;;85.63;43.93;;;-0.20;99.90;;;;;;10063934;29;20221;-83
2022/11/21 13:36:51;;;;;;;85.00;43.70;;;-0.20;1.00;;;;;;10059424;29;20626;-85
2022/11/21 13:48:09;;;;;;;86.90;46.80;;;-0.30;99.90;;;;;;10070934;29;20205;-84
2022/11/21 13:54:03;;;;;;;85.53;45.77;;;-0.30;1.00;;;;;;10033315;29;20275;-86
2022/11/21 13:59:49;;;;;;;92.57;47.77;;;-0.40;99.90;;;;;;10062899;29;20213;-87
2022/11/21 14:05:52;;;;;;;103.13;50.77;;;-0.40;1.00;;;;;;10074767;29;20432;-87
2022/11/21 14:11:31;;;;;;;97.87;50.97;;;-0.50;1.00;;;;;;10062404;29;20248;-88
2022/11/21 14:17:04;;;;;;;95.33;49.37;;;-0.40;1.00;;;;;;10078045;29;20275;-89
2022/11/21 14:22:36;;;;;;;119.47;60.27;;;-0.30;1.00;;;;;;10065397;29;20249;-82
2022/11/21 14:28:04;;;;;;;130.43;64.20;;;-0.40;1.00;;;;;;10092442;29;20253;-84
2022/11/21 14:33:33;;;;;;;122.17;63.23;;;-0.40;99.90;;;;;;10087853;29;20212;-85
2022/11/21 14:38:59;;;;;;;126.50;62.27;;;-0.50;1.00;;;;;;10069740;29;20243;-85
2022/11/21 14:44:41;;;;;;;145.13;68.60;;;-0.60;1.00;;;;;;10065287;29;20543;-86
2022/11/21 14:50:03;;;;;;;156.27;69.37;;;-0.60;1.00;;;;;;10056988;29;20193;-85
2022/11/21 14:55:30;;;;;;;128.83;61.33;;;-0.50;1.00;;;;;;10073765;29;20214;-82
2022/11/21 15:01:03;;;;;;;127.13;61.63;;;-0.50;1.00;;;;;;10080575;29;20215;-82
2022/11/21 15:06:25;;;;;;;130.80;58.83;;;-0.60;1.00;;;;;;10064632;29;20242;-84
2022/11/21 15:12:08;;;;;;;142.77;63.50;;;-0.70;1.00;;;;;;10099898;29;20198;-80
2022/11/21 15:17:31;;;;;;;150.27;69.03;;;-0.70;1.00;;;;;;10063135;29;20235;-81
2022/11/21 15:23:00;;;;;;;124.50;60.13;;;-0.70;1.00;;;;;;10063750;29;20229;-86
2022/11/21 15:28:22;;;;;;;114.73;55.77;;;-0.70;1.00;;;;;;10057526;29;20217;-81
2022/11/21 15:34:00;;;;;;;117.43;58.03;;;-0.70;1.00;;;;;;10071479;29;20421;-86
2022/11/21 15:39:49;;;;;;;129.30;62.17;;;-0.80;1.00;;;;;;10078069;29;20204;-83
2022/11/21 15:45:13;;;;;;;125.77;58.37;;;-0.80;1.00;;;;;;10057058;29;20313;-83
2022/11/21 15:50:38;;;;;;;115.00;56.77;;;-0.80;1.00;;;;;;10025908;29;20217;-80
2022/11/21 15:55:59;;;;;;;119.27;59.40;;;-0.80;1.00;;;;;;10018285;29;20522;-87
2022/11/21 16:01:22;;;;;;;105.40;55.27;;;-0.80;1.00;;;;;;10024939;29;20201;-81
2022/11/21 16:06:43;;;;;;;109.33;57.83;;;-0.90;1.00;;;;;;10044234;29;20249;-81
2022/11/21 16:12:05;;;;;;;114.07;55.57;;;-0.90;1.00;;;;;;10054973;29;20274;-83
2022/11/21 16:17:26;;;;;;;111.53;56.23;;;-0.80;1.00;;;;;;10052354;29;20242;-83
2022/11/21 16:22:47;;;;;;;115.53;57.13;;;-0.90;1.00;;;;;;10078038;29;20215;-80
2022/11/21 16:28:09;;;;;;;114.13;55.57;;;-0.90;1.00;;;;;;10079055;29;20499;-79
2022/11/21 16:33:32;;;;;;;124.73;60.37;;;-1.10;1.00;;;;;;10062682;29;20280;-80
2022/11/21 16:38:54;;;;;;;117.20;57.10;;;-1.10;1.00;;;;;;10051336;29;20220;-81
2022/11/21 16:44:15;;;;;;;123.87;62.03;;;-1.20;1.00;;;;;;10042705;29;20233;-82
2022/11/21 16:49:43;;;;;;;119.27;61.10;;;-1.20;1.00;;;;;;10052718;29;20575;-81
2022/11/21 16:55:04;;;;;;;153.27;75.20;;;-1.20;1.00;;;;;;10029695;29;20212;-83
2022/11/21 17:00:26;;;;;;;144.10;73.17;;;-1.30;1.00;;;;;;10039854;29;20210;-80
2022/11/21 17:05:58;;;;;;;143.80;70.87;;;-1.30;1.00;;;;;;10027361;29;20235;-87
2022/11/21 17:11:27;;;;;;;152.27;71.87;;;-1.40;1.00;;;;;;10030022;29;20251;-81
2022/11/21 17:16:49;;;;;;;147.57;74.53;;;-1.40;1.00;;;;;;10033502;29;20478;-79
2022/11/21 17:22:10;;;;;;;156.43;77.83;;;-1.40;1.00;;;;;;10050150;29;20207;-86
2022/11/21 17:27:31;;;;;;;164.07;81.30;;;-1.40;1.00;;;;;;10023988;29;20412;-80
2022/11/21 17:32:53;;;;;;;184.43;96.80;;;-1.50;1.00;;;;;;10061495;29;20202;-82
2022/11/21 17:38:15;;;;;;;214.00;107.73;;;-1.50;1.00;;;;;;10095348;29;20215;-88
2022/11/21 17:43:36;;;;;;;192.50;98.60;;;-1.40;1.00;;;;;;10072039;29;20227;-80
2022/11/21 17:48:58;;;;;;;172.40;86.33;;;-1.30;1.00;;;;;;10071068;29;20280;-81
2022/11/21 17:54:19;;;;;;;159.00;76.07;;;-1.20;1.00;;;;;;10070732;29;20213;-82
2022/11/21 17:59:42;;;;;;;175.53;87.07;;;-1.30;1.00;;;;;;10058394;29;20201;-81
2022/11/21 18:05:04;;;;;;;170.07;82.47;;;-1.30;1.00;;;;;;10083060;29;20318;-86
2022/11/21 18:10:26;;;;;;;176.27;82.83;;;-1.30;1.00;;;;;;10069990;29;20203;-80
2022/11/21 18:16:05;;;;;;;149.97;69.90;;;-1.20;1.00;;;;;;10069589;29;20213;-80
2022/11/21 18:21:29;;;;;;;135.07;70.07;;;-1.20;1.00;;;;;;10063071;29;20236;-82
2022/11/21 18:26:50;;;;;;;119.33;59.00;;;-1.20;1.00;;;;;;10108040;29;20265;-81
2022/11/21 18:32:12;;;;;;;122.37;59.63;;;-1.10;1.00;;;;;;10109604;29;20207;-85
2022/11/21 18:37:33;;;;;;;127.67;59.90;;;-1.20;1.00;;;;;;10087763;29;20214;-80
2022/11/21 18:42:54;;;;;;;120.40;57.97;;;-1.30;1.00;;;;;;10068484;29;20214;-80
2022/11/21 18:48:15;;;;;;;119.57;57.87;;;-1.30;1.00;;;;;;10068875;29;20403;-84
2022/11/21 18:53:37;;;;;;;117.27;55.13;;;-1.30;1.00;;;;;;10082930;29;20202;-82
2022/11/21 18:58:58;;;;;;;117.37;53.87;;;-1.20;1.00;;;;;;10055817;29;20207;-83
2022/11/21 19:04:19;;;;;;;115.23;55.83;;;-1.10;1.00;;;;;;10082195;29;20279;-79
2022/11/21 19:09:40;;;;;;;123.93;58.37;;;-1.00;1.00;;;;;;10068098;29;20499;-81
2022/11/21 19:15:01;;;;;;;133.20;64.87;;;-1.00;1.00;;;;;;10068265;29;20435;-85
2022/11/21 19:20:22;;;;;;;150.53;72.90;;;-0.90;1.00;;;;;;10081652;29;20310;-78
2022/11/21 19:25:43;;;;;;;152.83;75.07;;;-0.90;1.00;;;;;;10041866;29;20259;-78
2022/11/21 19:31:06;;;;;;;141.47;68.70;;;-0.90;1.00;;;;;;10042910;29;20498;-81
2022/11/21 19:36:27;;;;;;;146.27;67.73;;;-0.90;1.00;;;;;;10066330;29;20241;-82
2022/11/21 19:41:49;;;;;;;156.93;69.90;;;-0.90;1.00;;;;;;10080978;29;20244;-82
2022/11/21 19:47:10;;;;;;;159.23;74.50;;;-0.80;1.00;;;;;;10071237;29;20418;-79
2022/11/21 19:52:31;;;;;;;164.23;76.40;;;-0.90;1.00;;;;;;10076718;29;20211;-79
2022/11/21 19:57:53;;;;;;;153.77;71.23;;;-0.80;1.00;;;;;;10095211;29;20196;-78
2022/11/21 20:03:14;;;;;;;164.90;80.60;;;-0.80;1.00;;;;;;10090905;29;20217;-80
2022/11/21 20:08:35;;;;;;;162.33;79.80;;;-0.90;1.00;;;;;;10079593;29;20209;-82
2022/11/21 20:13:57;;;;;;;170.00;79.73;;;-0.80;1.00;;;;;;10079828;29;20377;-85
2022/11/21 20:19:21;;;;;;;168.20;75.07;;;-0.80;1.00;;;;;;10079916;29;20225;-85
2022/11/21 20:24:43;;;;;;;140.23;70.40;;;-0.70;1.00;;;;;;10111673;29;20228;-89
2022/11/21 20:30:07;;;;;;;154.50;71.17;;;-0.60;1.00;;;;;;10092512;29;20209;-80
2022/11/21 20:35:30;;;;;;;164.63;76.67;;;-0.50;1.00;;;;;;10126627;29;20238;-81
2022/11/21 20:40:51;;;;;;;161.03;74.27;;;-0.40;1.00;;;;;;10081450;29;20230;-80
2022/11/21 20:46:13;;;;;;;154.80;73.70;;;-0.50;1.00;;;;;;10057124;29;20241;-87
2022/11/21 20:51:39;;;;;;;135.07;64.33;;;-0.60;1.00;;;;;;10072760;29;20232;-80
2022/11/21 20:57:20;;;;;;;130.37;60.63;;;-0.60;1.00;;;;;;10073045;29;20201;-81
2022/11/21 21:02:41;;;;;;;138.73;65.53;;;-0.60;1.00;;;;;;10085922;29;20280;-87
2022/11/21 21:08:03;;;;;;;133.93;61.50;;;-0.60;1.00;;;;;;10072098;29;20228;-81
2022/11/21 21:13:25;;;;;;;142.90;64.90;;;-0.60;1.00;;;;;;10072221;29;20208;-86
2022/11/21 21:18:47;;;;;;;154.63;67.80;;;-0.60;1.00;;;;;;10085228;29;20240;-86
2022/11/21 21:24:12;;;;;;;148.33;67.40;;;-0.60;1.00;;;;;;10099184;29;20306;-84
2022/11/21 21:29:33;;;;;;;151.40;66.40;;;-0.60;1.00;;;;;;10110263;29;20205;-82
2022/11/21 21:34:54;;;;;;;159.23;71.57;;;-0.70;1.00;;;;;;10110622;29;20218;-84
2022/11/21 21:40:16;;;;;;;153.20;68.83;;;-0.70;1.00;;;;;;10103778;29;20200;-85
2022/11/21 21:45:37;;;;;;;146.20;67.80;;;-0.70;1.00;;;;;;10122932;29;20236;-84
2022/11/21 21:51:06;;;;;;;145.20;67.63;;;-0.70;1.00;;;;;;10109307;29;20221;-83
2022/11/21 21:56:28;;;;;;;164.13;74.50;;;-0.70;1.00;;;;;;10108779;29;20208;-86
2022/11/21 22:01:49;;;;;;;157.03;72.67;;;-0.70;1.00;;;;;;10109095;29;20208;-83
2022/11/21 22:07:10;;;;;;;152.80;68.93;;;-0.70;1.00;;;;;;10121831;29;20225;-86
2022/11/21 22:12:31;;;;;;;148.17;66.10;;;-0.60;1.00;;;;;;10108436;29;20389;-84
2022/11/21 22:17:52;;;;;;;166.30;70.23;;;-0.60;1.00;;;;;;10108501;29;20435;-86
2022/11/21 22:23:13;;;;;;;163.63;74.37;;;-0.60;1.00;;;;;;10126044;29;20214;-79
2022/11/21 22:28:36;;;;;;;159.27;71.73;;;-0.60;1.00;;;;;;10090247;29;20258;-83
2022/11/21 22:33:57;;;;;;;150.50;69.40;;;-0.60;1.00;;;;;;10069333;29;20217;-85
2022/11/21 22:39:18;;;;;;;161.27;73.13;;;-0.60;1.00;;;;;;10057771;29;20263;-79
2022/11/21 22:44:39;;;;;;;152.13;68.97;;;-0.60;1.00;;;;;;10056134;29;20306;-88
2022/11/21 22:50:04;;;;;;;150.03;67.87;;;-0.50;1.00;;;;;;10081810;29;20193;-85
2022/11/21 22:55:25;;;;;;;150.93;67.30;;;-0.50;1.00;;;;;;10074867;29;20193;-81
2022/11/21 23:00:46;;;;;;;150.43;67.57;;;-0.50;1.00;;;;;;10108482;29;20202;-78
2022/11/21 23:06:17;;;;;;;157.40;69.17;;;-0.50;1.00;;;;;;10057679;29;20239;-86
2022/11/21 23:11:38;;;;;;;151.83;67.07;;;-0.50;1.00;;;;;;10081359;29;20442;-78
2022/11/21 23:17:00;;;;;;;166.40;70.43;;;-0.50;1.00;;;;;;10080456;29;20294;-78
2022/11/21 23:22:21;;;;;;;150.70;66.17;;;-0.50;1.00;;;;;;10094363;29;20197;-86
2022/11/21 23:27:43;;;;;;;162.13;67.07;;;-0.60;1.00;;;;;;10105926;29;20265;-86
2022/11/21 23:33:04;;;;;;;172.33;72.07;;;-0.60;1.00;;;;;;10105579;29;20446;-87
2022/11/21 23:38:25;;;;;;;166.47;67.57;;;-0.60;1.00;;;;;;10074667;29;20282;-82
2022/11/21 23:43:46;;;;;;;184.83;72.77;;;-0.60;1.00;;;;;;10080471;29;20222;-86
2022/11/21 23:49:08;;;;;;;176.03;68.57;;;-0.50;1.00;;;;;;10066858;29;20575;-85
2022/11/21 23:54:29;;;;;;;155.77;69.90;;;-0.50;1.00;;;;;;10066606;29;20206;-86
2022/11/21 23:59:50;;;;;;;145.27;63.97;;;-0.50;1.00;;;;;;10067042;29;20212;-84
